createdAt,value
2023-05-08T00:00:10.184Z,98669.38
2023-05-08T00:02:37.052Z,98664.09
2023-05-08T00:05:03.985Z,98659.28
2023-05-08T00:07:30.786Z,98654.94
2023-05-08T00:09:57.610Z,98660.75
2023-05-08T00:12:24.316Z,98659.59
2023-05-08T00:14:50.941Z,98654.25
2023-05-08T00:17:17.656Z,98658.50
2023-05-08T00:19:44.253Z,98652.97
2023-05-08T00:22:11.129Z,98650.38
2023-05-08T00:24:37.762Z,98652.28
2023-05-08T00:27:04.450Z,98655.53
2023-05-08T00:29:31.198Z,98657.28
2023-05-08T00:31:57.875Z,98663.66
2023-05-08T00:34:24.515Z,98664.50
2023-05-08T00:36:51.171Z,98666.81
2023-05-08T00:39:18.485Z,98671.22
2023-05-08T00:41:45.405Z,98678.69
2023-05-08T00:44:12.011Z,98681.72
2023-05-08T00:46:39.417Z,98688.22
2023-05-08T00:49:06.783Z,98684.63
2023-05-08T00:51:34.074Z,98682.28
2023-05-08T00:54:00.849Z,98680.19
2023-05-08T00:56:28.418Z,98670.44
2023-05-08T00:58:55.327Z,98673.75
2023-05-08T01:01:22.697Z,98675.47
2023-05-08T01:03:49.793Z,98688.31
2023-05-08T01:06:16.933Z,98677.75
2023-05-08T01:08:46.684Z,98682.63
2023-05-08T01:11:13.332Z,98680.69
2023-05-08T01:14:02.861Z,98680.03
2023-05-08T01:16:45.511Z,98684.94
2023-05-08T01:19:40.900Z,98679.66
2023-05-08T01:22:29.782Z,98681.97
2023-05-08T01:25:27.193Z,98686.34
2023-05-08T01:28:02.485Z,98684.97
2023-05-08T01:30:32.077Z,98682.09
2023-05-08T01:33:17.281Z,98692.94
2023-05-08T01:35:51.871Z,98690.06
2023-05-08T01:38:37.654Z,98690.78
2023-05-08T01:41:12.039Z,98689.69
2023-05-08T01:43:52.209Z,98695.59
2023-05-08T01:46:24.146Z,98692.94
2023-05-08T01:49:12.647Z,98693.56
2023-05-08T01:51:44.811Z,98697.94
2023-05-08T01:54:16.409Z,98704.16
2023-05-08T01:56:45.374Z,98693.81
2023-05-08T01:59:17.065Z,98693.44
2023-05-08T02:01:46.131Z,98691.53
2023-05-08T02:04:16.257Z,98711.72
2023-05-08T02:06:43.800Z,98705.75
2023-05-08T02:09:12.549Z,98704.88
2023-05-08T02:11:42.427Z,98704.06
2023-05-08T02:14:11.615Z,98708.75
2023-05-08T02:16:40.452Z,98703.53
2023-05-08T02:19:08.449Z,98708.63
2023-05-08T02:21:36.921Z,98712.09
2023-05-08T02:24:04.612Z,98714.63
2023-05-08T02:26:32.710Z,98714.53
2023-05-08T02:29:02.294Z,98708.13
2023-05-08T02:31:30.400Z,98713.84
2023-05-08T02:33:59.595Z,98716.78
2023-05-08T02:36:28.888Z,98712.25
2023-05-08T02:38:58.870Z,98712.66
2023-05-08T02:41:29.776Z,98718.78
2023-05-08T02:43:57.044Z,98715.97
2023-05-08T02:47:07.302Z,98718.63
2023-05-08T02:50:03.674Z,98721.78
2023-05-08T02:52:37.948Z,98722.13
2023-05-08T02:55:27.320Z,98716.34
2023-05-08T02:58:32.576Z,98721.84
2023-05-08T03:01:24.385Z,98721.50
2023-05-08T03:04:07.742Z,98723.91
2023-05-08T03:06:40.262Z,98737.34
2023-05-08T03:09:12.474Z,98727.22
2023-05-08T03:11:42.416Z,98733.63
2023-05-08T03:14:12.621Z,98741.03
2023-05-08T03:16:42.890Z,98732.06
2023-05-08T03:19:23.095Z,98734.56
2023-05-08T03:21:51.846Z,98731.47
2023-05-08T03:24:20.375Z,98727.75
2023-05-08T03:26:47.717Z,98732.28
2023-05-08T03:29:15.649Z,98729.72
2023-05-08T03:31:44.597Z,98732.44
2023-05-08T03:34:13.527Z,98734.94
2023-05-08T03:36:40.863Z,98740.41
2023-05-08T03:39:08.124Z,98730.97
2023-05-08T03:41:34.952Z,98734.34
2023-05-08T03:44:03.677Z,98737.31
2023-05-08T03:46:35.715Z,98737.59
2023-05-08T03:49:06.040Z,98731.94
2023-05-08T03:51:33.225Z,98728.38
2023-05-08T03:54:00.013Z,98734.59
2023-05-08T03:56:28.085Z,98728.84
2023-05-08T03:59:17.666Z,98738.63
2023-05-08T04:01:53.956Z,98740.97
2023-05-08T04:04:39.974Z,98742.56
2023-05-08T04:07:11.454Z,98737.97
2023-05-08T04:09:51.590Z,98743.09
2023-05-08T04:12:22.351Z,98749.78
2023-05-08T04:15:11.656Z,98756.38
2023-05-08T04:17:44.123Z,98752.97
2023-05-08T04:20:16.566Z,98749.53
2023-05-08T04:22:46.206Z,98756.19
2023-05-08T04:25:16.462Z,98753.72
2023-05-08T04:27:45.242Z,98751.50
2023-05-08T04:30:13.378Z,98753.19
2023-05-08T04:32:42.321Z,98754.91
2023-05-08T04:35:13.281Z,98759.00
2023-05-08T04:37:42.050Z,98760.47
2023-05-08T04:40:10.512Z,98758.13
2023-05-08T04:42:39.456Z,98756.25
2023-05-08T04:45:06.931Z,98763.00
2023-05-08T04:47:33.690Z,98759.41
2023-05-08T04:50:02.751Z,98762.81
2023-05-08T04:52:31.236Z,98763.72
2023-05-08T04:54:57.979Z,98774.38
2023-05-08T04:57:24.576Z,98772.56
2023-05-08T04:59:51.518Z,98775.28
2023-05-08T05:02:18.472Z,98778.75
2023-05-08T05:04:46.614Z,98781.97
2023-05-08T05:07:14.042Z,98775.84
2023-05-08T05:09:41.019Z,98774.03
2023-05-08T05:12:08.124Z,98772.00
2023-05-08T05:14:35.564Z,98773.91
2023-05-08T05:17:02.360Z,98768.25
2023-05-08T05:19:29.402Z,98771.75
2023-05-08T05:21:56.289Z,98765.06
2023-05-08T05:24:23.123Z,98777.81
2023-05-08T05:26:49.853Z,98766.91
2023-05-08T05:29:16.928Z,98773.63
2023-05-08T05:31:43.826Z,98771.75
2023-05-08T05:34:10.788Z,98772.19
2023-05-08T05:36:37.488Z,98771.09
2023-05-08T05:39:04.650Z,98780.63
2023-05-08T05:41:32.513Z,98775.63
2023-05-08T05:43:59.209Z,98778.09
2023-05-08T05:46:32.197Z,98782.53
2023-05-08T05:49:01.216Z,98781.78
2023-05-08T05:51:29.375Z,98780.25
2023-05-08T05:53:57.137Z,98784.63
2023-05-08T05:56:24.722Z,98774.13
2023-05-08T05:58:51.708Z,98780.03
2023-05-08T06:01:18.405Z,98787.13
2023-05-08T06:03:45.154Z,98783.19
2023-05-08T06:06:12.450Z,98787.50
2023-05-08T06:08:39.280Z,98783.25
2023-05-08T06:11:05.988Z,98786.78
2023-05-08T06:13:32.907Z,98784.38
2023-05-08T06:16:00.311Z,98791.34
2023-05-08T06:18:27.003Z,98794.03
2023-05-08T06:21:00.118Z,98793.38
2023-05-08T06:23:27.072Z,98795.50
2023-05-08T06:25:54.197Z,98791.41
2023-05-08T06:28:22.448Z,98786.50
2023-05-08T06:30:49.274Z,98787.81
2023-05-08T06:33:15.959Z,98781.50
2023-05-08T06:35:46.440Z,98790.81
2023-05-08T06:38:13.812Z,98788.50
2023-05-08T06:40:46.584Z,98786.16
2023-05-08T06:43:13.469Z,98781.94
2023-05-08T06:45:40.569Z,98792.13
2023-05-08T06:48:07.551Z,98804.16
2023-05-08T06:50:37.198Z,98798.00
2023-05-08T06:53:03.887Z,98804.53
2023-05-08T06:55:30.596Z,98798.81
2023-05-08T06:57:57.254Z,98798.84
2023-05-08T07:00:24.179Z,98794.69
2023-05-08T07:02:51.714Z,98796.53
2023-05-08T07:05:19.915Z,98798.59
2023-05-08T07:07:46.738Z,98807.03
2023-05-08T07:10:13.408Z,98814.78
2023-05-08T07:12:40.872Z,98814.38
2023-05-08T07:15:24.148Z,98814.66
2023-05-08T07:17:51.869Z,98815.91
2023-05-08T07:20:18.524Z,98816.75
2023-05-08T07:22:45.141Z,98814.03
2023-05-08T07:25:12.992Z,98817.84
2023-05-08T07:27:39.900Z,98818.09
2023-05-08T07:30:07.282Z,98819.34
2023-05-08T07:32:34.127Z,98818.19
2023-05-08T07:35:02.782Z,98819.69
2023-05-08T07:37:29.600Z,98819.72
2023-05-08T07:39:56.245Z,98825.09
2023-05-08T07:42:23.199Z,98821.91
2023-05-08T07:44:54.883Z,98830.00
2023-05-08T07:47:22.597Z,98832.38
2023-05-08T07:49:49.425Z,98827.81
2023-05-08T07:52:16.768Z,98824.66
2023-05-08T07:54:43.721Z,98827.41
2023-05-08T07:57:11.110Z,98834.25
2023-05-08T07:59:37.707Z,98827.84
2023-05-08T08:02:04.368Z,98832.81
2023-05-08T08:04:31.117Z,98829.25
2023-05-08T08:06:57.830Z,98834.00
2023-05-08T08:09:24.567Z,98826.53
2023-05-08T08:11:51.284Z,98836.34
2023-05-08T08:14:17.986Z,98842.34
2023-05-08T08:16:44.679Z,98838.06
2023-05-08T08:19:11.369Z,98830.06
2023-05-08T08:21:43.214Z,98840.09
2023-05-08T08:24:10.130Z,98831.22
2023-05-08T08:26:36.977Z,98834.16
2023-05-08T08:29:03.852Z,98838.00
2023-05-08T08:31:30.628Z,98835.22
2023-05-08T08:33:57.612Z,98835.09
2023-05-08T08:36:24.259Z,98832.81
2023-05-08T08:38:50.869Z,98822.38
2023-05-08T08:41:17.653Z,98826.03
2023-05-08T08:43:44.334Z,98829.75
2023-05-08T08:46:15.510Z,98820.59
2023-05-08T08:48:45.402Z,98805.84
2023-05-08T08:51:25.501Z,98789.63
2023-05-08T08:54:00.678Z,98778.97
2023-05-08T08:56:28.853Z,98766.72
2023-05-08T08:58:59.226Z,98750.56
2023-05-08T09:01:29.242Z,98750.25
2023-05-08T09:03:59.814Z,98738.06
2023-05-08T09:06:27.585Z,98731.47
2023-05-08T09:08:58.454Z,98741.38
2023-05-08T09:11:25.767Z,98745.56
2023-05-08T09:13:52.557Z,98769.84
2023-05-08T09:16:19.345Z,98768.25
2023-05-08T09:18:46.045Z,98764.25
2023-05-08T09:21:13.003Z,98771.09
2023-05-08T09:24:00.160Z,98773.81
2023-05-08T09:26:32.690Z,98780.59
2023-05-08T09:29:09.737Z,98779.56
2023-05-08T09:31:39.727Z,98798.50
2023-05-08T09:34:11.201Z,98806.47
2023-05-08T09:36:40.619Z,98805.41
2023-05-08T09:39:14.248Z,98810.31
2023-05-08T09:42:00.181Z,98818.44
2023-05-08T09:44:27.225Z,98822.63
2023-05-08T09:47:14.140Z,98820.53
2023-05-08T09:50:16.805Z,98820.09
2023-05-08T09:52:47.941Z,98824.81
2023-05-08T09:55:15.011Z,98818.31
2023-05-08T09:57:53.815Z,98808.97
2023-05-08T10:00:21.042Z,98799.75
2023-05-08T10:03:02.334Z,98806.31
2023-05-08T10:05:32.234Z,98796.69
2023-05-08T10:08:21.283Z,98794.91
2023-05-08T10:10:48.097Z,98790.41
2023-05-08T10:13:15.306Z,98787.09
2023-05-08T10:15:43.405Z,98789.38
2023-05-08T10:18:12.198Z,98789.69
2023-05-08T10:20:44.197Z,98796.56
2023-05-08T10:23:16.840Z,98797.97
2023-05-08T10:25:46.191Z,98809.94
2023-05-08T10:28:28.074Z,98816.69
2023-05-08T10:30:59.731Z,98813.09
2023-05-08T10:33:31.376Z,98814.03
2023-05-08T10:35:58.998Z,98810.56
2023-05-08T10:38:25.976Z,98816.75
2023-05-08T10:40:57.741Z,98814.81
2023-05-08T10:43:25.444Z,98819.53
2023-05-08T10:45:53.672Z,98813.28
2023-05-08T10:48:32.631Z,98798.78
2023-05-08T10:51:17.905Z,98787.63
2023-05-08T10:53:50.933Z,98773.03
2023-05-08T10:56:17.634Z,98761.56
2023-05-08T10:58:44.223Z,98749.84
2023-05-08T11:01:12.061Z,98748.13
2023-05-08T11:03:44.818Z,98751.09
2023-05-08T11:06:12.529Z,98750.56
2023-05-08T11:08:48.768Z,98748.19
2023-05-08T11:11:34.175Z,98745.09
2023-05-08T11:14:07.068Z,98752.50
2023-05-08T11:16:56.414Z,98746.44
2023-05-08T11:19:25.082Z,98751.72
2023-05-08T11:22:10.988Z,98752.06
2023-05-08T11:24:39.378Z,98749.44
2023-05-08T11:27:06.169Z,98762.22
2023-05-08T11:29:33.170Z,98758.72
2023-05-08T11:32:00.283Z,98753.00
2023-05-08T11:34:42.661Z,98751.59
2023-05-08T11:37:11.212Z,98760.59
2023-05-08T11:39:38.171Z,98749.00
2023-05-08T11:42:27.072Z,98747.16
2023-05-08T11:45:13.200Z,98751.03
2023-05-08T11:47:42.654Z,98760.56
2023-05-08T11:50:11.615Z,98758.44
2023-05-08T11:52:41.272Z,98763.16
2023-05-08T11:55:10.145Z,98760.94
2023-05-08T11:57:37.082Z,98759.25
2023-05-08T12:00:12.020Z,98759.53
2023-05-08T12:02:40.008Z,98763.78
2023-05-08T12:05:08.077Z,98764.72
2023-05-08T12:07:47.914Z,98764.53
2023-05-08T12:10:16.022Z,98767.19
2023-05-08T12:12:45.005Z,98758.47
2023-05-08T12:15:14.384Z,98767.00
2023-05-08T12:17:42.084Z,98764.00
2023-05-08T12:20:14.337Z,98765.72
2023-05-08T12:22:42.521Z,98770.13
2023-05-08T12:25:11.945Z,98765.97
2023-05-08T12:27:38.927Z,98770.66
2023-05-08T12:30:10.926Z,98772.66
2023-05-08T12:32:40.057Z,98769.06
2023-05-08T12:35:08.742Z,98772.50
2023-05-08T12:37:36.635Z,98763.41
2023-05-08T12:40:04.852Z,98770.22
2023-05-08T12:42:49.911Z,98764.28
2023-05-08T12:45:25.604Z,98762.41
2023-05-08T12:47:53.837Z,98758.75
2023-05-08T12:50:21.847Z,98752.03
2023-05-08T12:52:51.142Z,98747.06
2023-05-08T12:55:25.806Z,98751.72
2023-05-08T12:57:59.671Z,98749.00
2023-05-08T13:00:39.737Z,98751.16
2023-05-08T13:03:08.459Z,98748.78
2023-05-08T13:05:37.457Z,98740.22
2023-05-08T13:08:11.931Z,98737.94
2023-05-08T13:10:47.736Z,98738.47
2023-05-08T13:13:15.947Z,98731.75
2023-05-08T13:15:43.184Z,98723.75
2023-05-08T13:18:10.274Z,98722.78
2023-05-08T13:20:37.989Z,98719.00
2023-05-08T13:23:05.363Z,98724.75
2023-05-08T13:25:33.062Z,98708.59
2023-05-08T13:28:00.298Z,98712.28
2023-05-08T13:30:27.311Z,98719.09
2023-05-08T13:32:54.550Z,98708.75
2023-05-08T13:35:21.786Z,98718.97
2023-05-08T13:37:49.337Z,98715.47
2023-05-08T13:40:16.468Z,98719.19
2023-05-08T13:42:43.470Z,98724.09
2023-05-08T13:45:10.855Z,98720.84
2023-05-08T13:47:37.619Z,98714.78
2023-05-08T13:50:04.549Z,98713.97
2023-05-08T13:52:31.168Z,98710.34
2023-05-08T13:54:58.305Z,98706.00
2023-05-08T13:57:25.047Z,98710.19
2023-05-08T13:59:51.816Z,98708.81
2023-05-08T14:02:18.548Z,98712.31
2023-05-08T14:04:45.249Z,98695.78
2023-05-08T14:07:11.952Z,98708.16
2023-05-08T14:09:38.620Z,98704.31
2023-05-08T14:12:05.502Z,98703.03
2023-05-08T14:14:33.136Z,98703.38
2023-05-08T14:17:01.125Z,98700.66
2023-05-08T14:19:27.799Z,98696.44
2023-05-08T14:21:54.576Z,98683.72
2023-05-08T14:24:21.280Z,98695.00
2023-05-08T14:26:48.290Z,98692.13
2023-05-08T14:29:15.493Z,98700.75
2023-05-08T14:31:42.266Z,98695.94
2023-05-08T14:34:08.966Z,98702.19
2023-05-08T14:36:35.576Z,98707.16
2023-05-08T14:39:03.117Z,98705.09
2023-05-08T14:41:30.714Z,98709.78
2023-05-08T14:43:57.842Z,98725.34
2023-05-08T14:46:25.122Z,98729.31
2023-05-08T14:48:51.796Z,98738.53
2023-05-08T14:51:21.049Z,98739.19
2023-05-08T14:53:47.830Z,98745.56
2023-05-08T14:56:14.848Z,98750.47
2023-05-08T14:58:41.610Z,98754.94
2023-05-08T15:01:08.239Z,98757.75
2023-05-08T15:03:35.011Z,98763.91
2023-05-08T15:06:02.264Z,98766.66
2023-05-08T15:08:28.995Z,98763.72
2023-05-08T15:10:56.053Z,98766.75
2023-05-08T15:13:22.798Z,98772.91
2023-05-08T15:15:49.571Z,98777.50
2023-05-08T15:18:16.356Z,98779.19
2023-05-08T15:20:43.018Z,98779.63
2023-05-08T15:23:10.078Z,98773.41
2023-05-08T15:25:36.795Z,98773.56
2023-05-08T15:28:03.618Z,98774.56
2023-05-08T15:30:30.455Z,98771.66
2023-05-08T15:32:57.171Z,98776.56
2023-05-08T15:35:23.847Z,98776.06
2023-05-08T15:37:50.702Z,98769.28
2023-05-08T15:40:17.408Z,98772.16
2023-05-08T15:42:44.076Z,98780.00
2023-05-08T15:45:10.808Z,98782.94
2023-05-08T15:47:37.469Z,98770.59
2023-05-08T15:50:04.402Z,98772.34
2023-05-08T15:52:31.028Z,98776.47
2023-05-08T15:54:57.728Z,98773.72
2023-05-08T15:57:26.943Z,98766.84
2023-05-08T15:59:53.621Z,98777.94
2023-05-08T16:02:20.449Z,98777.69
2023-05-08T16:04:47.168Z,98777.53
2023-05-08T16:07:13.941Z,98772.22
2023-05-08T16:09:40.633Z,98768.81
2023-05-08T16:12:07.454Z,98779.47
2023-05-08T16:14:35.468Z,98779.84
2023-05-08T16:17:03.096Z,98782.22
2023-05-08T16:19:29.861Z,98772.06
2023-05-08T16:21:56.605Z,98773.59
2023-05-08T16:24:23.307Z,98772.34
2023-05-08T16:26:49.886Z,98763.41
2023-05-08T16:29:16.505Z,98765.84
2023-05-08T16:31:43.176Z,98767.47
2023-05-08T16:34:09.870Z,98767.50
2023-05-08T16:36:36.752Z,98754.13
2023-05-08T16:39:03.542Z,98759.97
2023-05-08T16:41:30.214Z,98756.72
2023-05-08T16:43:56.816Z,98756.69
2023-05-08T16:46:30.101Z,98757.16
2023-05-08T16:48:57.728Z,98760.34
2023-05-08T16:51:24.451Z,98757.88
2023-05-08T16:53:51.226Z,98751.97
2023-05-08T16:56:18.102Z,98754.97
2023-05-08T16:58:44.770Z,98755.25
2023-05-08T17:01:11.748Z,98762.09
2023-05-08T17:03:38.626Z,98757.41
2023-05-08T17:06:09.189Z,98768.06
2023-05-08T17:08:35.820Z,98764.97
2023-05-08T17:11:02.551Z,98756.13
2023-05-08T17:13:29.329Z,98759.31
2023-05-08T17:15:56.291Z,98766.16
2023-05-08T17:18:22.958Z,98772.91
2023-05-08T17:20:50.841Z,98772.50
2023-05-08T17:23:17.546Z,98777.63
2023-05-08T17:25:44.224Z,98775.19
2023-05-08T17:28:13.929Z,98779.53
2023-05-08T17:30:40.567Z,98775.47
2023-05-08T17:33:07.377Z,98782.28
2023-05-08T17:35:34.236Z,98783.34
2023-05-08T17:38:00.911Z,98782.31
2023-05-08T17:40:28.859Z,98794.97
2023-05-08T17:42:55.683Z,98793.13
2023-05-08T17:45:22.343Z,98788.97
2023-05-08T17:47:49.073Z,98796.53
2023-05-08T17:50:15.965Z,98793.91
2023-05-08T17:52:42.725Z,98784.81
2023-05-08T17:55:10.202Z,98787.31
2023-05-08T17:57:36.934Z,98781.34
2023-05-08T18:00:05.061Z,98782.81
2023-05-08T18:02:35.428Z,98781.00
2023-05-08T18:05:02.186Z,98784.13
2023-05-08T18:07:29.054Z,98787.31
2023-05-08T18:09:55.835Z,98784.97
2023-05-08T18:12:22.775Z,98792.78
2023-05-08T18:14:49.423Z,98793.38
2023-05-08T18:17:19.166Z,98790.19
2023-05-08T18:19:46.326Z,98787.16
2023-05-08T18:22:13.033Z,98787.06
2023-05-08T18:24:39.642Z,98780.91
2023-05-08T18:27:06.392Z,98777.59
2023-05-08T18:29:33.063Z,98772.06
2023-05-08T18:31:59.660Z,98774.59
2023-05-08T18:34:26.360Z,98772.84
2023-05-08T18:36:54.198Z,98775.44
2023-05-08T18:39:22.099Z,98773.06
2023-05-08T18:41:48.780Z,98769.91
2023-05-08T18:44:15.558Z,98766.00
2023-05-08T18:46:42.462Z,98767.56
2023-05-08T18:49:09.205Z,98765.13
2023-05-08T18:51:36.079Z,98769.78
2023-05-08T18:54:02.699Z,98773.53
2023-05-08T18:56:29.427Z,98769.97
2023-05-08T18:58:56.343Z,98772.22
2023-05-08T19:01:23.728Z,98765.72
2023-05-08T19:03:50.669Z,98769.28
2023-05-08T19:06:17.362Z,98772.66
2023-05-08T19:08:44.537Z,98777.31
2023-05-08T19:11:11.324Z,98772.22
2023-05-08T19:13:38.398Z,98782.66
2023-05-08T19:16:05.636Z,98776.00
2023-05-08T19:18:32.309Z,98777.66
2023-05-08T19:20:59.001Z,98778.28
2023-05-08T19:23:25.646Z,98772.38
2023-05-08T19:25:52.811Z,98779.84
2023-05-08T19:28:19.646Z,98785.47
2023-05-08T19:30:46.903Z,98785.00
2023-05-08T19:33:13.645Z,98777.81
2023-05-08T19:35:40.341Z,98794.78
2023-05-08T19:38:07.003Z,98790.75
2023-05-08T19:40:44.557Z,98791.44
2023-05-08T19:43:19.092Z,98798.38
2023-05-08T19:45:45.794Z,98793.72
2023-05-08T19:48:18.039Z,98791.66
2023-05-08T19:50:45.060Z,98803.78
2023-05-08T19:53:11.868Z,98807.59
2023-05-08T19:55:38.615Z,98794.34
2023-05-08T19:58:05.207Z,98798.31
2023-05-08T20:00:31.917Z,98794.53
2023-05-08T20:02:58.760Z,98795.00
2023-05-08T20:05:25.670Z,98792.31
2023-05-08T20:07:52.290Z,98793.69
2023-05-08T20:10:19.093Z,98795.03
2023-05-08T20:12:45.781Z,98800.94
2023-05-08T20:15:12.673Z,98796.59
2023-05-08T20:17:39.421Z,98797.31
2023-05-08T20:20:06.787Z,98800.09
2023-05-08T20:22:33.476Z,98796.59
2023-05-08T20:25:01.566Z,98798.34
2023-05-08T20:27:30.438Z,98798.88
2023-05-08T20:29:57.255Z,98798.00
2023-05-08T20:32:24.125Z,98805.88
2023-05-08T20:34:50.746Z,98801.31
2023-05-08T20:37:17.472Z,98804.28
2023-05-08T20:39:45.004Z,98806.91
2023-05-08T20:42:11.865Z,98806.03
2023-05-08T20:44:38.608Z,98805.38
2023-05-08T20:47:05.354Z,98807.94
2023-05-08T20:49:32.047Z,98802.28
2023-05-08T20:51:58.766Z,98795.25
2023-05-08T20:54:25.539Z,98798.06
2023-05-08T20:56:52.223Z,98791.50
2023-05-08T20:59:18.989Z,98788.34
2023-05-08T21:01:47.198Z,98792.78
2023-05-08T21:04:13.918Z,98790.66
2023-05-08T21:06:40.580Z,98791.13
2023-05-08T21:09:07.337Z,98787.06
2023-05-08T21:11:34.172Z,98781.97
2023-05-08T21:14:00.900Z,98784.06
2023-05-08T21:16:27.548Z,98785.75
2023-05-08T21:18:55.492Z,98773.28
2023-05-08T21:21:24.106Z,98772.63
2023-05-08T21:23:50.702Z,98765.09
2023-05-08T21:26:19.726Z,98772.06
2023-05-08T21:28:46.439Z,98767.56
2023-05-08T21:31:13.210Z,98769.25
2023-05-08T21:33:39.868Z,98766.41
2023-05-08T21:36:06.717Z,98771.63
2023-05-08T21:38:34.068Z,98775.00
2023-05-08T21:41:10.929Z,98773.91
2023-05-08T21:43:37.592Z,98774.75
2023-05-08T21:46:05.228Z,98775.63
2023-05-08T21:48:32.030Z,98776.44
2023-05-08T21:50:59.145Z,98770.19
2023-05-08T21:53:25.996Z,98771.94
2023-05-08T21:55:52.692Z,98762.38
2023-05-08T21:58:19.550Z,98756.25
2023-05-08T22:00:46.362Z,98766.25
2023-05-08T22:03:13.143Z,98749.66
2023-05-08T22:05:39.858Z,98744.63
2023-05-08T22:08:06.461Z,98745.81
2023-05-08T22:10:33.055Z,98747.31
2023-05-08T22:13:01.344Z,98741.97
2023-05-08T22:15:30.728Z,98741.78
2023-05-08T22:17:58.794Z,98740.03
2023-05-08T22:20:25.740Z,98730.19
2023-05-08T22:22:52.400Z,98736.72
2023-05-08T22:25:19.447Z,98733.44
2023-05-08T22:27:46.377Z,98739.19
2023-05-08T22:30:13.580Z,98737.16
2023-05-08T22:32:40.378Z,98742.97
2023-05-08T22:35:07.162Z,98731.31
2023-05-08T22:37:33.733Z,98732.34
2023-05-08T22:40:00.362Z,98726.81
2023-05-08T22:42:27.027Z,98717.03
2023-05-08T22:44:54.803Z,98709.91
2023-05-08T22:47:21.577Z,98716.00
2023-05-08T22:49:48.735Z,98713.31
2023-05-08T22:52:15.385Z,98716.41
2023-05-08T22:54:42.087Z,98708.59
2023-05-08T22:57:08.782Z,98710.34
2023-05-08T22:59:36.334Z,98704.72
2023-05-08T23:02:02.991Z,98708.22
2023-05-08T23:04:29.649Z,98705.03
2023-05-08T23:06:56.589Z,98702.69
2023-05-08T23:09:23.623Z,98693.44
2023-05-08T23:11:50.325Z,98698.03
2023-05-08T23:14:16.993Z,98699.19
2023-05-08T23:16:43.668Z,98690.84
2023-05-08T23:19:10.498Z,98691.59
2023-05-08T23:21:37.216Z,98684.69
2023-05-08T23:24:04.804Z,98677.22
2023-05-08T23:26:31.516Z,98675.41
2023-05-08T23:28:58.244Z,98681.66
2023-05-08T23:31:24.929Z,98681.56
2023-05-08T23:33:51.671Z,98671.31
2023-05-08T23:36:18.390Z,98670.56
2023-05-08T23:38:45.109Z,98671.81
2023-05-08T23:41:12.111Z,98662.28
2023-05-08T23:43:39.061Z,98655.09
2023-05-08T23:46:06.443Z,98655.50
2023-05-08T23:48:33.173Z,98655.59
2023-05-08T23:50:59.796Z,98659.22
2023-05-08T23:53:26.427Z,98651.78
2023-05-08T23:55:53.116Z,98651.50
2023-05-08T23:58:19.760Z,98646.03
